WXM80 ListenWXM80 Stop

You find our weather info also at:

UK Metoffice

WeatherCloud

Weather Underground

Northeastern Weather Network

AWEKAS

Citizen Weather Observer Program (CWOP)

HAMweather, WeatherForYou, PWS Weather


Weather Underground History page Text

Daily Summary for February 25, 2016 Units:  English    Metric   Both
« Previous Day
Next Day »
Daily Weekly Monthly Yearly Custom
  High: Low: Average:
Temperature: 62.3 °F 39.4 °F 49.6 °F
Dew Point: 60.8 °F 31.8 °F 44.2 °F
Humidity: 96 % 66 % 82 %
Wind Speed: 18.4 mph 2.3 mph 7.8 mph
Wind Gust: 28.8 mph - -
Wind:- - SW
Pressure: 29.50 in 29.20 in -
Precipitation: 0.38 in    
Historical Graphs
 
 
Tabular Data for February 25, 2016
Time Temperature Dew Point Pressure Wind Wind Speed Wind Gust Humidity Rainfall Rate (Hourly)
00:14 61.6 °F 59.6 °F 29.34 in SSW 10.9 mph 20.7 mph 93 % 0.00 in
00:20 62.0 °F 60.6 °F 29.34 in South 10.9 mph 24.2 mph 95 % 0.00 in
00:25 62.3 °F 60.8 °F 29.33 in South 18.4 mph 25.3 mph 95 % 0.00 in
00:30 62.2 °F 60.5 °F 29.33 in South 10.7 mph 20.7 mph 94 % 0.00 in
00:35 61.8 °F 60.1 °F 29.33 in South 9.9 mph 18.4 mph 94 % 0.00 in
00:40 61.3 °F 59.6 °F 29.33 in South 8.0 mph 11.5 mph 94 % 0.00 in
00:45 61.1 °F 59.7 °F 29.33 in WSW 8.5 mph 23.0 mph 95 % 0.00 in
00:50 60.8 °F 59.4 °F 29.33 in South 8.1 mph 18.4 mph 95 % 0.00 in
01:00 60.5 °F 59.4 °F 29.33 in SSW 9.5 mph 17.3 mph 96 % 0.00 in
01:05 60.4 °F 59.3 °F 29.33 in SSW 11.4 mph 16.0 mph 96 % 0.00 in
01:11 60.2 °F 58.8 °F 29.32 in SSW 7.4 mph 13.0 mph 95 % 0.01 in
01:16 60.0 °F 58.6 °F 29.31 in SSW 9.1 mph 17.3 mph 95 % 0.01 in
01:21 59.9 °F 58.5 °F 29.31 in SSW 10.3 mph 17.3 mph 95 % 0.01 in
01:26 59.8 °F 58.4 °F 29.31 in SSW 7.0 mph 18.4 mph 95 % 0.01 in
01:31 59.6 °F 58.2 °F 29.31 in SSW 8.3 mph 15.0 mph 95 % 0.01 in
01:36 59.5 °F 58.1 °F 29.32 in SSW 10.4 mph 16.1 mph 95 % 0.01 in
01:41 59.4 °F 58.3 °F 29.31 in SSW 5.2 mph 17.3 mph 96 % 0.01 in
01:46 59.3 °F 58.2 °F 29.32 in WSW 7.7 mph 23.0 mph 96 % 0.01 in
01:51 59.2 °F 58.1 °F 29.31 in WSW 7.4 mph 13.8 mph 96 % 0.01 in
01:56 59.1 °F 58.0 °F 29.31 in SSW 7.2 mph 16.1 mph 96 % 0.01 in
02:02 59.0 °F 57.9 °F 29.31 in SE 4.8 mph 10.4 mph 96 % 0.01 in
02:07 58.9 °F 57.8 °F 29.30 in SW 8.2 mph 17.3 mph 96 % 0.01 in
02:12 59.0 °F 57.9 °F 29.31 in SW 7.6 mph 18.4 mph 96 % 0.00 in
02:17 59.0 °F 57.9 °F 29.31 in SSW 10.3 mph 15.0 mph 96 % 0.01 in
02:22 59.0 °F 57.9 °F 29.30 in SSW 6.7 mph 11.5 mph 96 % 0.01 in
02:27 58.9 °F 57.8 °F 29.29 in SSW 10.7 mph 20.7 mph 96 % 0.01 in
02:32 59.0 °F 57.9 °F 29.29 in SW 9.9 mph 16.1 mph 96 % 0.01 in
02:37 58.9 °F 57.8 °F 29.29 in SW 3.2 mph 9.2 mph 96 % 0.01 in
02:47 58.9 °F 57.8 °F 29.29 in SSW 13.8 mph 19.0 mph 96 % 0.01 in
02:53 58.7 °F 57.6 °F 29.28 in SSE 5.1 mph 11.5 mph 96 % 0.01 in
02:58 58.6 °F 57.5 °F 29.28 in SSW 5.8 mph 10.4 mph 96 % 0.01 in
03:08 58.3 °F 57.2 °F 29.28 in SSE 6.5 mph 9.0 mph 96 % 0.02 in
03:13 58.1 °F 57.0 °F 29.28 in SW 8.3 mph 12.7 mph 96 % 0.02 in
03:18 57.8 °F 56.7 °F 29.28 in South 7.2 mph 11.5 mph 96 % 0.01 in
03:23 57.5 °F 56.1 °F 29.28 in South 9.1 mph 13.8 mph 95 % 0.01 in
03:33 56.8 °F 55.4 °F 29.27 in SSW 8.6 mph 11.5 mph 95 % 0.01 in
03:38 56.4 °F 55.0 °F 29.27 in SSW 8.3 mph 17.3 mph 95 % 0.01 in
03:44 56.1 °F 54.7 °F 29.27 in SSW 6.1 mph 11.5 mph 95 % 0.01 in
03:49 55.9 °F 54.5 °F 29.27 in South 6.1 mph 9.2 mph 95 % 0.01 in
03:54 55.7 °F 54.3 °F 29.26 in SSW 7.6 mph 11.5 mph 95 % 0.01 in
03:59 55.5 °F 54.4 °F 29.26 in South 7.0 mph 11.5 mph 96 % 0.01 in
04:04 55.4 °F 54.3 °F 29.26 in SSW 7.2 mph 9.2 mph 96 % 0.00 in
04:09 55.3 °F 54.2 °F 29.25 in SSW 3.9 mph 6.9 mph 96 % 0.00 in
04:14 55.0 °F 53.9 °F 29.25 in SSW 3.2 mph 9.2 mph 96 % 0.01 in
04:19 54.8 °F 53.7 °F 29.25 in SSW 8.9 mph 12.7 mph 96 % 0.01 in
04:24 54.6 °F 53.5 °F 29.25 in SSW 5.1 mph 7.0 mph 96 % 0.01 in
04:29 54.4 °F 53.0 °F 29.25 in SW 4.9 mph 9.2 mph 95 % 0.01 in
04:35 54.3 °F 53.2 °F 29.25 in SSW 4.4 mph 9.2 mph 96 % 0.01 in
04:40 54.2 °F 53.1 °F 29.25 in SSW 4.0 mph 10.4 mph 96 % 0.01 in
04:45 54.1 °F 53.0 °F 29.25 in SSW 4.7 mph 10.4 mph 96 % 0.01 in
04:50 54.0 °F 52.9 °F 29.25 in SSW 6.0 mph 11.5 mph 96 % 0.01 in
04:55 54.0 °F 52.9 °F 29.24 in SSE 4.0 mph 6.0 mph 96 % 0.01 in
05:00 53.9 °F 52.8 °F 29.24 in SSW 6.1 mph 10.4 mph 96 % 0.01 in
05:05 53.9 °F 52.5 °F 29.24 in SW 3.5 mph 11.0 mph 95 % 0.01 in
05:10 53.8 °F 52.4 °F 29.24 in South 5.0 mph 11.5 mph 95 % 0.01 in
05:15 53.7 °F 52.3 °F 29.24 in SSW 4.4 mph 6.0 mph 95 % 0.00 in
05:20 53.5 °F 52.1 °F 29.24 in South 4.3 mph 10.4 mph 95 % 0.00 in
05:26 53.4 °F 52.0 °F 29.23 in SE 4.8 mph 9.2 mph 95 % 0.00 in
05:31 53.2 °F 51.8 °F 29.23 in SSW 4.0 mph 9.2 mph 95 % 0.00 in
05:36 53.1 °F 51.7 °F 29.24 in South 5.4 mph 8.1 mph 95 % 0.00 in
05:41 53.0 °F 51.6 °F 29.23 in South 4.6 mph 8.0 mph 95 % 0.00 in
05:46 52.8 °F 51.4 °F 29.23 in South 5.5 mph 11.5 mph 95 % 0.00 in
05:51 52.6 °F 51.2 °F 29.23 in SSW 4.2 mph 8.0 mph 95 % 0.01 in
05:56 52.4 °F 51.0 °F 29.23 in SSW 4.3 mph 9.2 mph 95 % 0.01 in
06:01 52.2 °F 50.5 °F 29.23 in SSW 3.9 mph 6.9 mph 94 % 0.01 in
06:06 52.1 °F 50.4 °F 29.23 in South 6.3 mph 8.0 mph 94 % 0.01 in
06:12 51.9 °F 50.5 °F 29.23 in SSW 3.7 mph 6.0 mph 95 % 0.01 in
06:17 51.7 °F 50.0 °F 29.23 in SSW 4.2 mph 8.1 mph 94 % 0.01 in
06:22 51.6 °F 49.9 °F 29.23 in SSW 4.0 mph 10.4 mph 94 % 0.02 in
06:27 51.4 °F 49.7 °F 29.23 in SSW 5.3 mph 9.2 mph 94 % 0.02 in
06:32 51.3 °F 49.9 °F 29.23 in SSW 7.6 mph 11.5 mph 95 % 0.02 in
06:37 51.2 °F 49.8 °F 29.23 in SSW 3.7 mph 6.0 mph 95 % 0.02 in
06:42 51.2 °F 49.5 °F 29.23 in South 3.6 mph 6.9 mph 94 % 0.03 in
06:47 51.0 °F 49.3 °F 29.24 in South 5.1 mph 9.2 mph 94 % 0.03 in
06:52 50.9 °F 49.2 °F 29.23 in SW 4.9 mph 8.0 mph 94 % 0.02 in
06:57 50.8 °F 49.1 °F 29.24 in SSW 2.6 mph 4.6 mph 94 % 0.03 in
07:03 50.8 °F 49.1 °F 29.24 in SSW 5.9 mph 7.0 mph 94 % 0.03 in
07:08 50.7 °F 49.0 °F 29.23 in SW 5.2 mph 12.0 mph 94 % 0.03 in
07:13 50.7 °F 49.0 °F 29.23 in SSW 5.1 mph 8.1 mph 94 % 0.04 in
07:18 50.8 °F 49.1 °F 29.23 in South 3.9 mph 8.1 mph 94 % 0.03 in
07:23 51.0 °F 49.0 °F 29.23 in SW 6.8 mph 11.5 mph 93 % 0.03 in
07:28 51.1 °F 49.1 °F 29.23 in SSW 5.0 mph 9.2 mph 93 % 0.03 in
07:33 51.2 °F 49.2 °F 29.24 in South 4.3 mph 4.6 mph 93 % 0.04 in
07:38 51.3 °F 49.1 °F 29.23 in South 6.0 mph 6.0 mph 92 % 0.04 in
07:43 51.4 °F 49.2 °F 29.24 in South 4.4 mph 4.6 mph 92 % 0.03 in
07:48 51.5 °F 49.0 °F 29.23 in SSW 4.2 mph 5.8 mph 91 % 0.04 in
07:54 51.6 °F 49.1 °F 29.23 in SSW 6.8 mph 8.1 mph 91 % 0.04 in
07:59 51.8 °F 49.3 °F 29.23 in SW 2.3 mph 8.1 mph 91 % 0.03 in
08:04 52.0 °F 49.2 °F 29.23 in SSW 5.7 mph 13.8 mph 90 % 0.03 in
08:09 52.3 °F 49.2 °F 29.23 in SW 8.2 mph 16.1 mph 89 % 0.04 in
08:14 52.7 °F 48.9 °F 29.23 in South 5.1 mph 9.2 mph 87 % 0.03 in
08:19 53.0 °F 48.9 °F 29.23 in SSW 5.0 mph 9.0 mph 86 % 0.03 in
08:29 53.5 °F 49.1 °F 29.23 in SSE 10.0 mph 12.7 mph 85 % 0.03 in
08:34 53.9 °F 49.5 °F 29.22 in SSW 7.3 mph 10.0 mph 85 % 0.03 in
08:39 54.2 °F 49.5 °F 29.22 in SW 6.7 mph 12.7 mph 84 % 0.03 in
08:45 54.4 °F 49.0 °F 29.22 in South 8.9 mph 15.0 mph 82 % 0.03 in
08:50 54.4 °F 48.4 °F 29.22 in SSW 6.9 mph 20.7 mph 80 % 0.03 in
08:55 54.4 °F 48.4 °F 29.21 in West 5.1 mph 10.4 mph 80 % 0.03 in
09:00 54.4 °F 48.4 °F 29.21 in SSW 5.6 mph 11.0 mph 80 % 0.03 in
09:05 54.5 °F 48.1 °F 29.21 in SW 12.4 mph 19.6 mph 79 % 0.03 in
09:10 54.8 °F 48.1 °F 29.21 in SW 9.3 mph 19.6 mph 78 % 0.02 in
09:15 54.8 °F 47.7 °F 29.20 in South 6.9 mph 12.7 mph 77 % 0.03 in
09:20 54.6 °F 47.2 °F 29.20 in SSW 6.5 mph 12.7 mph 76 % 0.03 in
09:25 54.7 °F 47.6 °F 29.20 in SW 6.1 mph 11.0 mph 77 % 0.03 in
09:36 55.5 °F 48.1 °F 29.20 in SSE 7.6 mph 12.7 mph 76 % 0.03 in
09:41 55.7 °F 47.5 °F 29.20 in WSW 8.5 mph 19.6 mph 74 % 0.03 in
09:46 55.5 °F 47.3 °F 29.20 in SW 5.3 mph 17.3 mph 74 % 0.03 in
09:51 55.1 °F 47.0 °F 29.20 in SSW 4.8 mph 12.7 mph 74 % 0.02 in
09:56 54.6 °F 46.5 °F 29.20 in SSW 9.8 mph 17.3 mph 74 % 0.02 in
10:11 53.4 °F 46.0 °F 29.21 in SW 5.9 mph 13.8 mph 76 % 0.01 in
10:16 53.2 °F 46.2 °F 29.21 in SSW 10.2 mph 12.0 mph 77 % 0.01 in
10:21 52.9 °F 45.9 °F 29.20 in SW 15.6 mph 17.0 mph 77 % 0.01 in
10:27 52.7 °F 46.0 °F 29.21 in SSE 5.4 mph 8.1 mph 78 % 0.01 in
10:32 52.5 °F 45.8 °F 29.20 in SSW 7.0 mph 12.7 mph 78 % 0.01 in
10:37 52.4 °F 45.7 °F 29.20 in SSE 9.1 mph 16.1 mph 78 % 0.01 in
10:42 52.3 °F 45.6 °F 29.20 in SSW 9.1 mph 15.0 mph 78 % 0.01 in
10:47 52.3 °F 46.0 °F 29.20 in South 8.2 mph 12.7 mph 79 % 0.01 in
10:57 52.7 °F 46.4 °F 29.20 in SW 12.7 mph 17.0 mph 79 % 0.02 in
11:07 53.2 °F 46.2 °F 29.21 in WSW 10.6 mph 15.0 mph 77 % 0.03 in
11:12 53.3 °F 46.3 °F 29.21 in SSW 6.0 mph 9.2 mph 77 % 0.04 in
11:18 53.3 °F 45.9 °F 29.21 in SW 4.0 mph 11.5 mph 76 % 0.05 in
11:23 53.3 °F 45.2 °F 29.21 in SW 8.8 mph 15.0 mph 74 % 0.05 in
11:28 53.2 °F 45.1 °F 29.22 in SSW 5.8 mph 13.0 mph 74 % 0.06 in
11:33 53.1 °F 44.7 °F 29.22 in SSW 7.5 mph 15.0 mph 73 % 0.06 in
11:38 52.8 °F 44.0 °F 29.22 in WSW 14.6 mph 23.0 mph 72 % 0.06 in
11:48 52.6 °F 44.2 °F 29.22 in WSW 9.0 mph 16.1 mph 73 % 0.07 in
11:53 52.5 °F 44.8 °F 29.22 in WNW 5.3 mph 8.1 mph 75 % 0.08 in
11:58 52.5 °F 44.8 °F 29.23 in SSW 7.2 mph 11.5 mph 75 % 0.07 in
12:03 52.6 °F 45.2 °F 29.22 in WSW 5.3 mph 16.0 mph 76 % 0.07 in
12:09 52.6 °F 45.2 °F 29.22 in SW 7.2 mph 15.0 mph 76 % 0.07 in
12:14 53.0 °F 45.6 °F 29.23 in SW 4.8 mph 10.4 mph 76 % 0.07 in
12:19 53.3 °F 45.6 °F 29.23 in West 8.0 mph 15.0 mph 75 % 0.07 in
12:24 53.2 °F 45.1 °F 29.23 in WSW 6.4 mph 11.5 mph 74 % 0.07 in
12:29 52.8 °F 44.7 °F 29.23 in WSW 6.3 mph 15.0 mph 74 % 0.07 in
12:34 52.2 °F 44.5 °F 29.23 in NW 9.8 mph 20.0 mph 75 % 0.07 in
12:39 51.5 °F 43.8 °F 29.23 in SW 5.7 mph 10.0 mph 75 % 0.07 in
12:44 51.4 °F 44.4 °F 29.22 in SW 6.4 mph 12.7 mph 77 % 0.06 in
12:49 51.7 °F 45.1 °F 29.22 in SSW 4.8 mph 13.8 mph 78 % 0.06 in
12:54 52.1 °F 45.1 °F 29.22 in SW 7.5 mph 11.5 mph 77 % 0.06 in
13:00 52.2 °F 44.9 °F 29.21 in WNW 7.7 mph 13.8 mph 76 % 0.06 in
13:05 52.1 °F 44.4 °F 29.21 in SW 4.0 mph 10.4 mph 75 % 0.06 in
13:15 51.6 °F 43.6 °F 29.21 in SW 9.0 mph 18.4 mph 74 % 0.05 in
13:20 51.5 °F 43.1 °F 29.21 in WSW 9.4 mph 16.1 mph 73 % 0.05 in
13:25 51.7 °F 43.0 °F 29.21 in SSW 11.3 mph 18.4 mph 72 % 0.05 in
13:30 51.6 °F 42.5 °F 29.22 in SW 8.5 mph 15.0 mph 71 % 0.04 in
13:35 51.6 °F 41.8 °F 29.21 in WSW 12.4 mph 17.3 mph 69 % 0.05 in
13:40 51.8 °F 41.9 °F 29.21 in WSW 6.6 mph 10.4 mph 69 % 0.04 in
13:45 52.0 °F 41.4 °F 29.22 in SW 8.1 mph 18.4 mph 67 % 0.04 in
13:51 51.8 °F 41.2 °F 29.22 in WSW 5.4 mph 13.8 mph 67 % 0.05 in
13:56 51.3 °F 40.3 °F 29.23 in WSW 10.7 mph 18.4 mph 66 % 0.04 in
14:01 50.8 °F 40.2 °F 29.23 in WSW 9.0 mph 19.6 mph 67 % 0.04 in
14:06 50.5 °F 40.3 °F 29.23 in WNW 12.3 mph 20.7 mph 68 % 0.04 in
14:16 49.5 °F 39.4 °F 29.24 in WNW 9.6 mph 19.6 mph 68 % 0.04 in
14:21 49.3 °F 39.6 °F 29.25 in WSW 10.1 mph 19.0 mph 69 % 0.03 in
14:26 49.0 °F 38.5 °F 29.25 in WSW 8.4 mph 16.1 mph 67 % 0.03 in
14:31 48.8 °F 38.7 °F 29.25 in WSW 9.1 mph 13.8 mph 68 % 0.04 in
14:36 48.6 °F 38.1 °F 29.26 in WSW 7.3 mph 15.0 mph 67 % 0.03 in
14:42 48.4 °F 38.3 °F 29.26 in West 9.6 mph 15.0 mph 68 % 0.03 in
14:47 48.3 °F 38.2 °F 29.26 in SSW 5.4 mph 11.5 mph 68 % 0.03 in
14:52 48.1 °F 38.0 °F 29.27 in WSW 9.7 mph 15.0 mph 68 % 0.03 in
15:02 47.8 °F 37.7 °F 29.27 in WSW 5.9 mph 13.0 mph 68 % 0.03 in
15:07 47.8 °F 37.7 °F 29.27 in WSW 7.1 mph 11.5 mph 68 % 0.02 in
15:12 47.7 °F 37.7 °F 29.27 in WSW 12.5 mph 19.6 mph 68 % 0.02 in
15:17 47.6 °F 37.6 °F 29.28 in WSW 7.1 mph 14.0 mph 68 % 0.02 in
15:22 47.5 °F 37.5 °F 29.28 in WNW 11.8 mph 19.6 mph 68 % 0.02 in
15:27 47.3 °F 36.9 °F 29.28 in SW 9.6 mph 23.0 mph 67 % 0.02 in
15:33 47.2 °F 37.2 °F 29.28 in SW 9.7 mph 18.4 mph 68 % 0.01 in
15:38 47.1 °F 37.1 °F 29.29 in SW 7.7 mph 17.3 mph 68 % 0.01 in
15:48 46.9 °F 36.5 °F 29.29 in SW 9.7 mph 16.1 mph 67 % 0.01 in
15:53 46.8 °F 36.4 °F 29.29 in SW 6.7 mph 13.0 mph 67 % 0.00 in
15:58 46.7 °F 36.7 °F 29.30 in WSW 9.0 mph 16.1 mph 68 % 0.00 in
16:03 46.5 °F 36.1 °F 29.29 in SSW 13.6 mph 26.5 mph 67 % 0.00 in
16:08 46.4 °F 36.4 °F 29.30 in West 8.2 mph 17.3 mph 68 % 0.00 in
16:13 46.3 °F 36.3 °F 29.30 in WSW 9.7 mph 16.0 mph 68 % 0.00 in
16:18 46.2 °F 35.8 °F 29.30 in WSW 9.4 mph 18.0 mph 67 % 0.00 in
16:24 46.0 °F 35.7 °F 29.30 in SSW 8.4 mph 10.4 mph 67 % 0.00 in
16:29 45.9 °F 35.6 °F 29.31 in SW 9.4 mph 18.4 mph 67 % 0.00 in
16:39 45.6 °F 36.0 °F 29.31 in West 10.1 mph 20.7 mph 69 % 0.00 in
16:44 45.3 °F 36.4 °F 29.32 in SSW 7.1 mph 11.5 mph 71 % 0.00 in
16:49 45.1 °F 36.6 °F 29.31 in WSW 8.8 mph 15.0 mph 72 % 0.00 in
16:54 44.8 °F 37.4 °F 29.32 in SSW 11.3 mph 20.0 mph 75 % 0.00 in
16:59 44.2 °F 37.8 °F 29.32 in SW 7.7 mph 16.1 mph 78 % 0.00 in
17:04 43.7 °F 37.9 °F 29.33 in WSW 7.7 mph 11.5 mph 80 % 0.00 in
17:09 43.2 °F 37.1 °F 29.33 in WSW 7.7 mph 28.8 mph 79 % 0.00 in
17:15 42.9 °F 37.2 °F 29.33 in WSW 12.1 mph 17.3 mph 80 % 0.00 in
17:20 42.7 °F 37.3 °F 29.34 in SW 9.9 mph 11.5 mph 81 % 0.00 in
17:25 42.5 °F 36.8 °F 29.34 in WSW 9.8 mph 21.9 mph 80 % 0.00 in
17:30 42.3 °F 36.9 °F 29.34 in WSW 9.4 mph 13.8 mph 81 % 0.00 in
17:35 42.3 °F 37.2 °F 29.35 in SSW 7.1 mph 10.4 mph 82 % 0.00 in
17:40 42.1 °F 37.0 °F 29.34 in WSW 7.7 mph 11.5 mph 82 % 0.00 in
17:45 41.8 °F 36.4 °F 29.35 in WNW 8.3 mph 19.6 mph 81 % 0.00 in
17:50 41.6 °F 35.9 °F 29.35 in SSW 10.7 mph 18.4 mph 80 % 0.00 in
17:55 41.4 °F 36.0 °F 29.36 in West 6.1 mph 11.5 mph 81 % 0.00 in
18:00 41.2 °F 35.5 °F 29.36 in SW 11.5 mph 16.1 mph 80 % 0.00 in
18:06 41.0 °F 35.3 °F 29.36 in WSW 9.7 mph 18.4 mph 80 % 0.00 in
18:11 41.0 °F 35.3 °F 29.37 in SW 7.9 mph 17.3 mph 80 % 0.00 in
18:16 41.0 °F 35.0 °F 29.36 in SW 11.1 mph 18.4 mph 79 % 0.00 in
18:21 41.1 °F 35.1 °F 29.37 in SW 8.0 mph 15.0 mph 79 % 0.00 in
18:26 41.1 °F 34.8 °F 29.37 in WSW 9.3 mph 18.4 mph 78 % 0.00 in
18:36 41.1 °F 34.8 °F 29.37 in SSW 11.7 mph 23.0 mph 78 % 0.00 in
18:46 41.1 °F 34.4 °F 29.38 in West 9.8 mph 21.9 mph 77 % 0.00 in
18:52 41.1 °F 34.4 °F 29.38 in SW 11.4 mph 18.4 mph 77 % 0.00 in
18:57 41.2 °F 34.5 °F 29.38 in WSW 5.4 mph 11.5 mph 77 % 0.00 in
19:02 41.1 °F 34.1 °F 29.38 in WSW 9.5 mph 19.6 mph 76 % 0.00 in
19:07 41.1 °F 34.1 °F 29.39 in WSW 11.1 mph 15.0 mph 76 % 0.00 in
19:12 41.1 °F 34.1 °F 29.38 in South 7.3 mph 13.8 mph 76 % 0.00 in
19:17 41.1 °F 34.1 °F 29.38 in WSW 7.6 mph 14.0 mph 76 % 0.00 in
19:22 41.1 °F 34.1 °F 29.39 in SW 5.4 mph 11.5 mph 76 % 0.00 in
19:27 41.1 °F 33.8 °F 29.39 in South 10.1 mph 17.3 mph 75 % 0.00 in
19:32 41.1 °F 33.4 °F 29.39 in WSW 8.9 mph 20.0 mph 74 % 0.00 in
19:37 41.1 °F 33.8 °F 29.39 in West 8.0 mph 15.0 mph 75 % 0.00 in
19:43 41.0 °F 33.3 °F 29.40 in WSW 13.0 mph 17.3 mph 74 % 0.00 in
19:48 41.0 °F 33.7 °F 29.40 in WSW 8.3 mph 16.1 mph 75 % 0.00 in
19:53 41.0 °F 33.7 °F 29.40 in West 6.6 mph 12.7 mph 75 % 0.00 in
19:58 40.9 °F 33.6 °F 29.40 in SW 11.0 mph 16.1 mph 75 % 0.00 in
20:03 40.9 °F 33.9 °F 29.40 in SW 13.1 mph 23.0 mph 76 % 0.00 in
20:08 40.9 °F 33.9 °F 29.41 in NW 7.8 mph 11.5 mph 76 % 0.00 in
20:13 40.8 °F 33.8 °F 29.41 in SW 8.3 mph 21.9 mph 76 % 0.00 in
20:18 40.7 °F 33.7 °F 29.41 in WSW 6.4 mph 9.2 mph 76 % 0.00 in
20:23 40.6 °F 33.6 °F 29.41 in WSW 9.2 mph 17.3 mph 76 % 0.00 in
20:34 40.6 °F 34.0 °F 29.41 in SW 8.6 mph 17.3 mph 77 % 0.00 in
20:39 40.6 °F 34.0 °F 29.41 in SW 10.6 mph 13.8 mph 77 % 0.00 in
20:44 40.6 °F 34.0 °F 29.42 in SW 8.7 mph 15.0 mph 77 % 0.00 in
20:49 40.6 °F 34.0 °F 29.41 in WSW 12.9 mph 18.0 mph 77 % 0.00 in
20:54 40.5 °F 33.9 °F 29.42 in SW 6.7 mph 11.5 mph 77 % 0.00 in
20:59 40.5 °F 33.9 °F 29.42 in WSW 6.3 mph 12.0 mph 77 % 0.00 in
21:04 40.5 °F 34.2 °F 29.42 in West 8.7 mph 12.7 mph 78 % 0.00 in
21:09 40.5 °F 34.2 °F 29.42 in SSW 6.7 mph 11.5 mph 78 % 0.00 in
21:14 40.5 °F 34.2 °F 29.42 in SW 7.7 mph 11.5 mph 78 % 0.00 in
21:19 40.5 °F 33.9 °F 29.42 in SW 9.6 mph 16.1 mph 77 % 0.00 in
21:25 40.5 °F 33.9 °F 29.43 in South 10.0 mph 13.0 mph 77 % 0.00 in
21:30 40.5 °F 33.9 °F 29.43 in WSW 8.3 mph 15.0 mph 77 % 0.00 in
21:35 40.6 °F 34.0 °F 29.44 in WSW 4.6 mph 16.1 mph 77 % 0.00 in
21:40 40.6 °F 34.0 °F 29.44 in SW 6.8 mph 13.8 mph 77 % 0.00 in
21:45 40.6 °F 33.6 °F 29.44 in West 6.3 mph 13.0 mph 76 % 0.00 in
21:50 40.6 °F 33.6 °F 29.44 in SSW 7.0 mph 11.5 mph 76 % 0.00 in
21:55 40.7 °F 33.7 °F 29.45 in SSW 10.0 mph 18.4 mph 76 % 0.00 in
22:00 40.7 °F 33.7 °F 29.45 in WSW 7.9 mph 13.8 mph 76 % 0.00 in
22:05 40.7 °F 33.4 °F 29.45 in WSW 10.8 mph 17.3 mph 75 % 0.00 in
22:10 40.7 °F 33.4 °F 29.45 in WSW 8.1 mph 18.4 mph 75 % 0.00 in
22:21 40.7 °F 33.1 °F 29.46 in WSW 7.5 mph 20.0 mph 74 % 0.00 in
22:26 40.7 °F 33.1 °F 29.45 in SW 6.8 mph 11.5 mph 74 % 0.00 in
22:36 40.7 °F 33.1 °F 29.46 in WSW 7.5 mph 13.8 mph 74 % 0.00 in
22:41 40.7 °F 33.1 °F 29.47 in West 9.4 mph 15.0 mph 74 % 0.00 in
22:46 40.6 °F 33.0 °F 29.47 in SSW 9.3 mph 16.1 mph 74 % 0.00 in
22:51 40.4 °F 33.1 °F 29.47 in SW 5.9 mph 19.6 mph 75 % 0.00 in
22:56 40.3 °F 33.0 °F 29.47 in SW 6.8 mph 11.5 mph 75 % 0.00 in
23:01 40.1 °F 32.8 °F 29.47 in WSW 9.0 mph 12.7 mph 75 % 0.00 in
23:07 39.9 °F 32.6 °F 29.47 in West 10.9 mph 19.6 mph 75 % 0.00 in
23:12 39.8 °F 32.5 °F 29.47 in West 10.5 mph 21.9 mph 75 % 0.00 in
23:17 39.8 °F 32.2 °F 29.48 in WSW 9.0 mph 13.8 mph 74 % 0.00 in
23:22 39.8 °F 32.2 °F 29.48 in WSW 10.1 mph 17.3 mph 74 % 0.00 in
23:27 39.8 °F 31.8 °F 29.48 in SSW 9.6 mph 13.8 mph 73 % 0.00 in
23:32 39.8 °F 32.2 °F 29.49 in WSW 7.1 mph 12.0 mph 74 % 0.00 in
23:37 39.7 °F 32.4 °F 29.49 in WSW 7.3 mph 18.4 mph 75 % 0.00 in
23:42 39.6 °F 32.0 °F 29.49 in WSW 8.0 mph 11.5 mph 74 % 0.00 in
23:47 39.6 °F 32.3 °F 29.49 in WSW 7.0 mph 13.8 mph 75 % 0.00 in
23:52 39.5 °F 32.2 °F 29.49 in SW 11.5 mph 13.0 mph 75 % 0.00 in
23:58 39.4 °F 32.1 °F 29.50 in WSW 8.6 mph 18.4 mph 75 % 0.00 in
Crab Meadow Weather
Compliments of Weather Underground - 2.75 mb

Script developed by  Jim McMurry - jmcmurry@mwt.net Adapted for the template by  Wim van der Kuil - Leuven-Template.eu

Weather Terms: Sleet - Sleet or ice pellets are solid grains of ice formed from the freezing of rain or the refreezing of melted snow, which bounce off the ground and other objects.